Time;durP1;ratioP1;P1;durP2;ratioP2;P2;SDS_P1;SDS_P2;PMS_P1;PMS_P2;Temp;Humidity;BMP_temperature;BMP_pressure;BME280_temperature;BME280_humidity;BME280_pressure;Samples;Min_cycle;Max_cycle;Signal;HPM_P1;HPM_P2
2021/12/01 00:00:33;;;;;;;6.13;0.90;;;;;;;16.42;46.24;101304.16;4901238;29;20096;-73
2021/12/01 00:03:01;;;;;;;8.82;1.00;;;;;;;16.44;45.56;101312.16;4895042;29;20573;-73
2021/12/01 00:05:33;;;;;;;6.95;1.70;;;;;;;16.42;45.44;101309.47;4888443;29;20056;-73
2021/12/01 00:08:01;;;;;;;5.78;1.17;;;;;;;16.36;45.52;101314.81;4897831;29;20064;-73
2021/12/01 00:10:30;;;;;;;7.97;1.42;;;;;;;16.34;45.57;101316.59;4894853;29;20097;-74
2021/12/01 00:12:59;;;;;;;8.68;1.02;;;;;;;16.38;45.37;101322.81;4900518;29;20037;-74
2021/12/01 00:15:26;;;;;;;5.13;1.02;;;;;;;16.39;45.00;101306.81;4896436;29;20037;-73
2021/12/01 00:17:54;;;;;;;3.30;0.98;;;;;;;16.40;44.64;101316.59;4892895;29;20664;-74
2021/12/01 00:20:22;;;;;;;8.10;1.25;;;;;;;16.41;44.88;101318.34;4898747;29;20044;-73
2021/12/01 00:22:52;;;;;;;7.03;0.90;;;;;;;16.44;44.99;101323.69;4894559;29;20120;-74
2021/12/01 00:25:24;;;;;;;8.80;1.75;;;;;;;16.40;44.93;101323.72;4892917;29;20044;-73
2021/12/01 00:27:52;;;;;;;4.00;0.50;;;;;;;16.37;44.52;101324.59;4894864;29;20553;-73
2021/12/01 00:30:20;;;;;;;5.30;0.60;;;;;;;16.33;44.64;101321.03;4908449;29;20485;-73
2021/12/01 00:32:48;;;;;;;5.90;1.00;;;;;;;16.30;44.17;101321.03;4909126;29;20545;-74
2021/12/01 00:35:17;;;;;;;5.25;0.70;;;;;;;16.29;44.09;101326.34;4891379;29;20036;-73
2021/12/01 00:37:45;;;;;;;6.03;1.17;;;;;;;16.27;43.90;101318.38;4900911;29;20048;-74
2021/12/01 00:40:15;;;;;;;8.30;1.30;;;;;;;16.30;43.94;101328.13;4894436;29;20461;-73
2021/12/01 00:42:43;;;;;;;5.82;1.08;;;;;;;16.34;44.05;101337.91;4890910;29;20104;-73
2021/12/01 00:45:16;;;;;;;5.75;0.50;;;;;;;16.37;43.76;101316.59;4900931;29;20045;-73
2021/12/01 00:47:46;;;;;;;8.70;1.20;;;;;;;16.39;44.09;101311.28;4914604;29;20100;-73
2021/12/01 00:50:18;;;;;;;3.00;0.52;;;;;;;16.40;43.97;101315.72;4889370;29;20043;-73
2021/12/01 00:52:46;;;;;;;3.72;0.70;;;;;;;16.42;43.58;101316.59;4900208;29;20139;-73
2021/12/01 00:55:15;;;;;;;9.05;0.77;;;;;;;16.42;43.41;101309.47;4883464;29;20044;-73
2021/12/01 00:57:43;;;;;;;7.85;1.17;;;;;;;16.43;43.51;101316.59;4898118;29;20445;-74
2021/12/01 01:00:13;;;;;;;9.75;0.75;;;;;;;16.45;43.64;101309.50;4908951;29;20048;-74
2021/12/01 01:02:41;;;;;;;4.20;0.88;;;;;;;16.45;44.22;101312.16;4909532;29;20512;-73
2021/12/01 01:05:11;;;;;;;5.20;1.05;;;;;;;16.46;44.45;101313.94;4902241;29;20076;-74
2021/12/01 01:07:39;;;;;;;3.85;0.82;;;;;;;16.43;44.92;101303.25;4921432;29;20050;-74
2021/12/01 01:10:17;;;;;;;7.15;0.98;;;;;;;16.39;45.39;101308.59;4914469;29;20040;-73
2021/12/01 01:18:16;;;;;;;6.28;1.23;;;;;;;16.15;45.98;101323.66;4917896;29;20437;-73
2021/12/01 01:20:44;;;;;;;7.60;1.10;;;;;;;16.13;45.89;101311.25;4914444;29;20072;-73
2021/12/01 01:23:12;;;;;;;3.97;0.60;;;;;;;16.11;45.83;101302.34;4930049;29;20037;-73
2021/12/01 01:25:40;;;;;;;5.30;0.80;;;;;;;16.06;45.85;101312.13;4930203;29;20052;-74
2021/12/01 01:28:10;;;;;;;6.30;0.75;;;;;;;16.01;45.61;101324.53;4911751;29;20051;-74
2021/12/01 01:30:38;;;;;;;4.07;0.70;;;;;;;15.97;45.51;101310.31;4932624;29;20047;-74
2021/12/01 01:33:05;;;;;;;3.17;0.80;;;;;;;15.91;45.36;101319.16;4907039;29;20040;-73
2021/12/01 01:35:33;;;;;;;4.82;0.75;;;;;;;15.89;45.15;101331.59;4911110;29;20382;-73
2021/12/01 01:38:01;;;;;;;3.65;0.60;;;;;;;15.84;44.61;101330.69;4908672;29;20052;-73
2021/12/01 01:40:29;;;;;;;2.63;0.40;;;;;;;15.82;44.60;101332.44;4910393;29;20048;-73
2021/12/01 01:42:57;;;;;;;3.58;0.40;;;;;;;15.85;44.56;101337.78;4894755;29;20048;-73
2021/12/01 01:45:26;;;;;;;3.42;0.65;;;;;;;15.86;44.49;101336.03;4917134;29;20060;-74
2021/12/01 01:48:00;;;;;;;4.57;1.17;;;;;;;15.85;44.38;101329.81;4902108;29;20044;-73
2021/12/01 01:50:36;;;;;;;6.07;0.70;;;;;;;15.76;44.04;101324.44;4918537;29;20059;-73
2021/12/01 01:53:06;;;;;;;2.90;0.52;;;;;;;15.74;43.86;101334.22;4907139;29;20047;-73
2021/12/01 01:55:33;;;;;;;4.10;0.68;;;;;;;15.75;43.81;101329.78;4929783;29;20082;-73
2021/12/01 01:58:02;;;;;;;2.15;0.50;;;;;;;15.77;43.63;101328.00;4889856;29;20100;-73
2021/12/01 02:00:33;;;;;;;5.03;0.38;;;;;;;15.78;43.55;101330.66;4897686;29;20048;-73
2021/12/01 02:03:01;;;;;;;5.95;0.57;;;;;;;15.74;43.60;101322.69;4907107;29;20048;-73
2021/12/01 02:05:29;;;;;;;1.63;0.30;;;;;;;15.71;43.55;101320.00;4928325;29;20116;-72
2021/12/01 02:07:57;;;;;;;1.63;0.50;;;;;;;15.66;43.67;101317.31;4897196;29;20041;-73
2021/12/01 02:10:25;;;;;;;3.88;0.50;;;;;;;15.61;43.35;101318.19;4897949;29;20134;-74
2021/12/01 02:12:52;;;;;;;4.53;1.05;;;;;;;15.61;43.56;101310.22;4897852;29;20103;-74
2021/12/01 02:15:20;;;;;;;4.55;0.70;;;;;;;15.61;43.57;101305.78;4912302;29;20044;-73
2021/12/01 02:17:51;;;;;;;1.48;0.32;;;;;;;15.64;43.75;101308.44;4905062;29;20556;-73
2021/12/01 02:20:21;;;;;;;7.75;0.80;;;;;;;15.68;43.74;101301.38;4926065;29;20119;-73
2021/12/01 02:22:49;;;;;;;1.27;0.50;;;;;;;15.66;43.62;101319.97;4899265;29;20052;-73
2021/12/01 02:25:17;;;;;;;3.35;0.80;;;;;;;15.63;43.74;101321.72;4933939;29;20090;-73
2021/12/01 02:27:45;;;;;;;4.00;0.60;;;;;;;15.61;44.01;101308.44;4921178;29;20044;-73
2021/12/01 02:30:12;;;;;;;3.28;0.47;;;;;;;15.65;44.13;101317.31;4915038;29;20040;-73
2021/12/01 02:32:40;;;;;;;2.92;1.23;;;;;;;15.65;44.18;101325.28;4930697;29;20087;-73
2021/12/01 02:35:08;;;;;;;3.45;0.40;;;;;;;15.68;44.30;101317.34;4897611;29;20086;-74
2021/12/01 02:37:38;;;;;;;4.15;0.75;;;;;;;15.73;44.20;101320.91;4914156;29;20100;-73
2021/12/01 02:40:08;;;;;;;3.50;0.30;;;;;;;15.71;43.95;101322.66;4925245;29;20625;-73
2021/12/01 02:42:36;;;;;;;6.22;0.60;;;;;;;15.67;43.82;101332.41;4903001;29;20040;-73
2021/12/01 02:45:05;;;;;;;5.85;0.88;;;;;;;15.65;43.90;101325.28;4927130;29;20036;-74
2021/12/01 02:47:32;;;;;;;3.67;0.50;;;;;;;15.60;43.74;101314.63;4928122;29;20488;-73
2021/12/01 02:50:00;;;;;;;4.63;0.55;;;;;;;15.57;43.45;101311.94;4927523;29;20044;-74
2021/12/01 02:52:33;;;;;;;3.65;0.45;;;;;;;15.55;43.42;101308.41;4914600;29;20051;-73
2021/12/01 02:55:04;;;;;;;7.35;0.70;;;;;;;15.52;43.03;101308.34;4928531;29;20429;-73
2021/12/01 02:57:42;;;;;;;7.80;1.92;;;;;;;15.49;42.93;101306.56;4922168;29;20057;-73
2021/12/01 03:00:11;;;;;;;4.28;0.80;;;;;;;15.47;43.02;101312.78;4902393;29;20043;-73
2021/12/01 03:02:39;;;;;;;2.42;0.50;;;;;;;15.47;42.98;101320.75;4918289;29;20555;-73
2021/12/01 03:05:08;;;;;;;3.55;0.95;;;;;;;15.48;42.76;101325.19;4915345;29;20047;-73
2021/12/01 03:07:37;;;;;;;4.28;0.50;;;;;;;15.49;42.61;101317.19;4915084;29;20044;-73
2021/12/01 03:10:08;;;;;;;5.35;0.52;;;;;;;15.49;42.30;101319.00;4927809;29;20048;-73
2021/12/01 03:12:39;;;;;;;4.00;0.68;;;;;;;15.43;41.97;101316.28;4929735;29;20411;-73
2021/12/01 03:15:09;;;;;;;5.65;0.60;;;;;;;15.41;42.17;101321.63;4916120;29;20126;-74
2021/12/01 03:17:37;;;;;;;5.20;0.63;;;;;;;15.40;42.46;101316.28;4933158;29;20412;-74
2021/12/01 03:20:09;;;;;;;5.93;0.93;;;;;;;15.37;42.93;101321.59;4920996;29;20036;-73
2021/12/01 03:22:37;;;;;;;5.47;0.70;;;;;;;15.31;43.05;101317.13;4908392;29;20053;-74
2021/12/01 03:25:12;;;;;;;4.03;0.70;;;;;;;15.32;43.11;101331.31;4917974;29;20108;-73
2021/12/01 03:27:40;;;;;;;5.97;0.60;;;;;;;15.27;43.17;101327.75;4910988;29;20064;-73
2021/12/01 03:30:10;;;;;;;4.30;0.70;;;;;;;15.27;43.18;101333.06;4919480;29;20139;-74
2021/12/01 03:32:38;;;;;;;2.53;0.30;;;;;;;15.23;42.82;101340.13;4913688;29;20054;-74
2021/12/01 03:35:09;;;;;;;5.97;0.70;;;;;;;15.24;42.96;101343.69;4914155;29;20044;-74
2021/12/01 03:37:39;;;;;;;2.22;0.55;;;;;;;15.21;42.50;101338.34;4917372;29;20041;-74
2021/12/01 03:40:12;;;;;;;2.72;0.32;;;;;;;15.21;42.53;101327.72;4919300;29;20103;-74
2021/12/01 03:42:40;;;;;;;4.65;0.50;;;;;;;15.16;42.47;101312.59;4925190;29;20036;-74
2021/12/01 03:45:08;;;;;;;1.20;0.50;;;;;;;15.16;42.48;101320.59;4931549;29;20044;-74
2021/12/01 03:47:36;;;;;;;2.15;0.50;;;;;;;15.12;42.63;101323.22;4932681;29;20051;-73
2021/12/01 03:50:04;;;;;;;3.83;0.60;;;;;;;15.11;42.50;101332.97;4931227;29;20086;-74
2021/12/01 03:52:32;;;;;;;4.25;0.50;;;;;;;15.11;42.64;101338.28;4932652;29;20082;-73
2021/12/01 03:55:00;;;;;;;2.08;0.70;;;;;;;15.14;42.93;101346.31;4931102;29;20523;-73
2021/12/01 03:57:29;;;;;;;23.00;2.50;;;;;;;15.13;43.27;101355.16;4888083;29;20126;-73
2021/12/01 03:59:57;;;;;;;7.22;0.90;;;;;;;15.13;43.49;101347.19;4913378;29;20048;-73
2021/12/01 04:02:25;;;;;;;3.47;0.60;;;;;;;15.13;43.64;101338.31;4913364;29;20056;-73
2021/12/01 04:04:53;;;;;;;6.30;0.70;;;;;;;15.12;43.59;101337.41;4910871;29;20045;-73
2021/12/01 04:07:21;;;;;;;2.83;0.65;;;;;;;15.09;43.91;101347.16;4894325;29;20044;-73
2021/12/01 04:09:50;;;;;;;6.03;0.50;;;;;;;15.10;43.85;101355.13;4918730;29;20628;-73
2021/12/01 04:12:18;;;;;;;3.35;1.35;;;;;;;15.11;43.94;101351.59;4909333;29;20032;-74
2021/12/01 04:14:47;;;;;;;5.10;0.85;;;;;;;15.09;43.68;101358.69;4917815;29;20044;-73
2021/12/01 04:17:16;;;;;;;2.10;0.60;;;;;;;15.04;43.56;101348.88;4893750;29;20122;-74
2021/12/01 04:19:45;;;;;;;2.60;0.45;;;;;;;15.02;43.46;101340.91;4929133;29;20055;-73
2021/12/01 04:22:12;;;;;;;3.08;0.30;;;;;;;15.01;43.30;101332.91;4927093;29;20755;-73
2021/12/01 04:24:41;;;;;;;4.75;0.60;;;;;;;15.02;43.30;101338.25;4911547;29;20139;-73
2021/12/01 04:27:09;;;;;;;3.25;0.60;;;;;;;15.06;43.11;101350.66;4919972;29;20103;-74
2021/12/01 04:29:37;;;;;;;4.72;0.77;;;;;;;15.14;43.05;101359.59;4915026;29;20043;-73
2021/12/01 04:32:08;;;;;;;2.05;0.55;;;;;;;15.19;43.24;101362.28;4910331;29;20044;-74
2021/12/01 04:34:36;;;;;;;5.30;0.95;;;;;;;15.22;43.91;101358.75;4915175;29;20044;-73
2021/12/01 04:37:04;;;;;;;4.22;0.43;;;;;;;15.23;43.97;101357.88;4873440;29;20048;-73
2021/12/01 04:39:32;;;;;;;12.23;1.10;;;;;;;15.27;44.22;101363.22;4880427;29;20051;-74
2021/12/01 04:42:04;;;;;;;7.57;1.00;;;;;;;15.29;44.38;101357.91;4890415;29;20048;-74
2021/12/01 04:44:33;;;;;;;6.00;0.65;;;;;;;15.32;44.55;101363.25;4915263;29;20048;-73
2021/12/01 04:47:03;;;;;;;2.63;1.60;;;;;;;15.30;44.71;101362.31;4923885;29;20045;-74
2021/12/01 04:49:35;;;;;;;4.80;1.27;;;;;;;15.32;44.74;101361.47;4912454;29;20063;-73
2021/12/01 04:52:03;;;;;;;1.52;1.20;;;;;;;15.30;44.77;101359.66;4930098;29;20044;-73
2021/12/01 04:54:31;;;;;;;5.07;0.98;;;;;;;15.26;44.80;101355.22;4913179;29;20048;-75
2021/12/01 04:56:59;;;;;;;6.07;1.27;;;;;;;15.23;44.85;101358.75;4908484;29;20056;-73
2021/12/01 04:59:27;;;;;;;3.83;1.17;;;;;;;15.21;44.94;101373.81;4914636;29;20050;-73
2021/12/01 05:01:56;;;;;;;2.80;1.00;;;;;;;15.15;45.05;101372.03;4898852;29;20166;-73
2021/12/01 05:04:24;;;;;;;3.90;0.70;;;;;;;15.11;45.15;101383.50;4926756;29;20036;-73
2021/12/01 05:06:56;;;;;;;8.52;2.00;;;;;;;15.10;44.94;101388.81;4908628;29;20039;-73
2021/12/01 05:09:24;;;;;;;4.70;2.03;;;;;;;15.06;45.22;101390.56;4905881;29;20040;-73
2021/12/01 05:11:52;;;;;;;6.13;1.35;;;;;;;15.06;45.05;101398.53;4897045;29;20420;-74
2021/12/01 05:14:20;;;;;;;3.80;0.93;;;;;;;15.07;45.06;101400.31;4913667;29;20079;-73
2021/12/01 05:16:49;;;;;;;6.88;1.10;;;;;;;15.12;44.91;101389.72;4908280;29;20083;-73
2021/12/01 05:19:17;;;;;;;8.38;2.13;;;;;;;15.15;45.05;101387.09;4910793;29;20047;-73
2021/12/01 05:21:45;;;;;;;6.20;0.90;;;;;;;15.15;45.18;101401.28;4915888;29;20044;-73
2021/12/01 05:24:15;;;;;;;3.45;0.80;;;;;;;15.17;45.11;101409.25;4908527;29;20113;-74
2021/12/01 05:26:43;;;;;;;4.03;1.00;;;;;;;15.14;45.27;101410.13;4911293;29;20048;-74
2021/12/01 05:29:10;;;;;;;4.63;0.98;;;;;;;15.13;45.23;101413.66;4916231;29;20071;-73
2021/12/01 05:31:38;;;;;;;4.78;0.68;;;;;;;15.19;45.36;101411.91;4898870;29;20059;-73
2021/12/01 05:34:06;;;;;;;4.03;0.55;;;;;;;15.21;45.35;101408.41;4918238;29;20040;-74
2021/12/01 05:36:33;;;;;;;5.97;0.70;;;;;;;15.20;45.40;101413.72;4902909;29;20409;-73
2021/12/01 05:39:02;;;;;;;1.77;0.60;;;;;;;15.14;45.22;101412.78;4896751;29;20048;-73
2021/12/01 05:41:31;;;;;;;7.85;1.08;;;;;;;15.13;45.41;101413.66;4895385;29;20470;-74
2021/12/01 05:43:59;;;;;;;4.75;1.08;;;;;;;15.09;45.78;101422.50;4898021;29;20643;-74
2021/12/01 05:46:27;;;;;;;5.40;1.02;;;;;;;15.11;45.57;101438.44;4896339;29;20044;-73
2021/12/01 05:48:55;;;;;;;4.50;0.82;;;;;;;15.15;45.38;101437.63;4875683;29;20101;-73
2021/12/01 05:51:23;;;;;;;7.93;3.17;;;;;;;15.19;45.27;101423.44;4895557;29;20512;-73
2021/12/01 05:53:51;;;;;;;6.78;1.30;;;;;;;15.27;45.04;101420.84;4879002;29;20139;-74
2021/12/01 05:56:20;;;;;;;7.70;1.25;;;;;;;15.32;44.81;101413.78;4878971;29;20125;-73
2021/12/01 05:58:49;;;;;;;3.30;1.10;;;;;;;15.31;44.95;101428.84;4893906;29;20056;-73
2021/12/01 06:01:17;;;;;;;2.75;0.90;;;;;;;15.34;45.16;101428.00;4886561;29;20064;-73
2021/12/01 06:03:44;;;;;;;7.28;2.53;;;;;;;15.47;45.40;101436.06;4880496;29;20105;-74
2021/12/01 06:06:13;;;;;;;8.90;3.75;;;;;;;15.58;45.49;101448.56;4883649;29;20102;-74
2021/12/01 06:08:41;;;;;;;8.63;2.80;;;;;;;15.62;45.05;101439.75;4890953;29;20045;-74
2021/12/01 06:11:10;;;;;;;8.32;1.98;;;;;;;15.59;44.70;101427.31;4878110;29;20056;-74
2021/12/01 06:13:40;;;;;;;3.83;1.30;;;;;;;15.59;44.48;101429.97;4887455;29;20047;-73
2021/12/01 06:16:10;;;;;;;3.30;0.70;;;;;;;15.70;44.29;101428.25;4914041;29;20044;-74
2021/12/01 06:18:38;;;;;;;3.17;0.63;;;;;;;15.88;44.32;101438.97;4900857;29;20048;-74
2021/12/01 06:21:05;;;;;;;5.63;0.60;;;;;;;16.12;44.14;101448.88;4902610;29;20055;-74
2021/12/01 06:23:33;;;;;;;2.85;0.57;;;;;;;16.33;43.95;101445.41;4894119;29;20045;-74
2021/12/01 06:26:01;;;;;;;7.38;2.10;;;;;;;16.57;43.87;101452.53;4892319;29;20045;-74
2021/12/01 06:28:30;;;;;;;6.70;1.55;;;;;;;16.85;43.78;101461.53;4895560;29;20049;-74
2021/12/01 06:31:00;;;;;;;3.75;0.68;;;;;;;17.06;42.37;101453.53;4886914;29;20080;-75
2021/12/01 06:33:29;;;;;;;4.93;0.82;;;;;;;17.26;41.63;101456.22;4886877;29;20051;-74
2021/12/01 06:35:57;;;;;;;3.33;0.70;;;;;;;17.40;41.12;101454.38;4908148;29;20040;-74
2021/12/01 06:38:25;;;;;;;3.60;0.63;;;;;;;17.60;41.20;101457.91;4925288;29;20060;-74
2021/12/01 06:40:52;;;;;;;4.93;0.57;;;;;;;17.77;41.09;101460.59;4904612;29;20048;-74
2021/12/01 06:43:20;;;;;;;2.85;0.90;;;;;;;17.99;41.19;101469.41;4904396;29;20052;-74
2021/12/01 06:45:48;;;;;;;4.43;1.42;;;;;;;18.13;41.31;101463.13;4907943;29;20056;-75
2021/12/01 06:48:16;;;;;;;5.78;1.38;;;;;;;18.20;41.68;101461.31;4902887;29;20053;-74
2021/12/01 06:50:45;;;;;;;4.47;1.10;;;;;;;18.18;41.49;101464.00;4927766;29;20047;-75
2021/12/01 06:53:13;;;;;;;5.55;0.93;;;;;;;18.14;41.28;101466.69;4931291;29;20079;-75
2021/12/01 06:55:41;;;;;;;3.60;0.47;;;;;;;18.00;40.96;101473.88;4911713;29;20051;-74
2021/12/01 06:58:08;;;;;;;6.13;0.77;;;;;;;17.89;40.80;101473.91;4910797;29;20060;-75
2021/12/01 07:00:37;;;;;;;4.80;0.98;;;;;;;17.84;40.74;101473.03;4907928;29;20036;-74
2021/12/01 07:03:04;;;;;;;3.47;0.40;;;;;;;18.05;41.10;101478.28;4895871;29;20044;-75
2021/12/01 07:05:32;;;;;;;8.63;0.85;;;;;;;18.24;40.08;101474.69;4896989;29;20040;-75
2021/12/01 07:08:02;;;;;;;4.65;0.73;;;;;;;18.08;39.67;101478.31;4913982;29;20079;-73
2021/12/01 07:10:30;;;;;;;3.88;0.60;;;;;;;17.91;39.61;101480.16;4910764;29;20531;-74
2021/12/01 07:12:58;;;;;;;5.25;0.50;;;;;;;17.78;39.41;101481.97;4916775;29;20566;-74
2021/12/01 07:15:25;;;;;;;8.23;0.80;;;;;;;17.84;39.74;101489.97;4898329;29;20072;-74
2021/12/01 07:17:53;;;;;;;4.60;1.25;;;;;;;18.14;40.24;101486.28;4903043;29;20548;-74
2021/12/01 07:20:21;;;;;;;6.85;1.52;;;;;;;18.38;40.33;101487.97;4909774;29;20095;-74
2021/12/01 07:22:49;;;;;;;9.25;2.10;;;;;;;18.41;40.09;101487.06;4913495;29;20134;-74
2021/12/01 07:25:18;;;;;;;8.15;2.25;;;;;;;18.52;40.55;101480.75;4896998;29;20048;-74
2021/12/01 07:27:46;;;;;;;5.75;1.80;;;;;;;18.69;40.35;101489.63;4911105;29;20457;-74
2021/12/01 07:30:14;;;;;;;4.45;0.90;;;;;;;18.86;40.17;101497.53;4909895;29;20036;-73
2021/12/01 07:32:42;;;;;;;3.92;1.30;;;;;;;19.10;39.95;101493.78;4895243;29;20453;-74
2021/12/01 07:35:11;;;;;;;3.72;1.00;;;;;;;19.26;39.66;101492.78;4895423;29;20044;-74
2021/12/01 07:37:39;;;;;;;3.05;0.50;;;;;;;19.24;38.92;101499.94;4891603;29;20128;-73
2021/12/01 07:40:07;;;;;;;2.40;0.60;;;;;;;19.42;39.09;101505.16;4900010;29;20119;-73
2021/12/01 07:42:37;;;;;;;6.43;0.70;;;;;;;19.55;38.17;101505.97;4917420;29;20096;-74
2021/12/01 07:45:06;;;;;;;2.08;0.45;;;;;;;19.65;38.17;101506.75;4919015;29;20052;-73
2021/12/01 07:47:34;;;;;;;4.18;0.50;;;;;;;19.70;38.12;101497.75;4879317;29;20096;-74
2021/12/01 07:50:02;;;;;;;2.70;0.52;;;;;;;19.77;37.76;101495.91;4903944;29;20123;-74
2021/12/01 07:52:29;;;;;;;3.13;0.50;;;;;;;19.82;38.29;101497.63;4895945;29;20052;-74
2021/12/01 07:54:57;;;;;;;4.70;0.80;;;;;;;19.90;37.62;101502.91;4912174;29;20040;-74
2021/12/01 07:57:25;;;;;;;2.25;0.52;;;;;;;20.10;37.72;101500.00;4935012;29;20074;-73
2021/12/01 07:59:55;;;;;;;5.32;0.60;;;;;;;20.22;37.62;101510.56;4886492;29;20049;-74
2021/12/01 08:02:23;;;;;;;5.05;0.80;;;;;;;20.31;37.09;101513.16;4914707;29;20043;-73
2021/12/01 08:04:50;;;;;;;5.13;0.90;;;;;;;20.51;37.44;101518.31;4914044;29;20047;-73
2021/12/01 08:07:19;;;;;;;2.88;0.52;;;;;;;20.64;37.06;101515.44;4894289;29;20117;-74
2021/12/01 08:09:46;;;;;;;4.13;0.70;;;;;;;20.80;37.30;101513.44;4904213;29;20052;-74
2021/12/01 08:12:14;;;;;;;3.95;0.55;;;;;;;21.05;37.36;101516.63;4906912;29;20044;-73
2021/12/01 08:14:42;;;;;;;3.42;0.47;;;;;;;21.09;36.20;101518.34;4912189;29;20053;-74
2021/12/01 08:17:11;;;;;;;2.85;1.00;;;;;;;20.78;36.30;101511.66;4895062;29;20045;-74
2021/12/01 08:19:39;;;;;;;5.47;0.60;;;;;;;20.68;35.72;101522.53;4910420;29;20103;-74
2021/12/01 08:22:09;;;;;;;3.50;0.60;;;;;;;20.73;36.31;101514.44;4893625;29;20052;-74
2021/12/01 08:24:37;;;;;;;5.25;0.65;;;;;;;20.75;36.33;101509.91;4893442;29;20598;-74
2021/12/01 08:27:06;;;;;;;7.82;0.75;;;;;;;20.77;36.00;101513.47;4908178;29;20045;-74
2021/12/01 08:29:33;;;;;;;6.28;0.80;;;;;;;20.61;35.89;101520.81;4907221;29;20075;-74
2021/12/01 08:32:01;;;;;;;3.72;0.80;;;;;;;20.42;35.74;101524.66;4924902;29;20050;-73
2021/12/01 08:34:31;;;;;;;4.10;0.65;;;;;;;20.30;36.07;101531.03;4890275;29;20528;-74
2021/12/01 08:36:59;;;;;;;5.38;1.02;;;;;;;20.34;35.93;101531.03;4907712;29;20565;-74
2021/12/01 08:39:26;;;;;;;3.17;0.73;;;;;;;20.26;36.53;101523.94;4894936;29;20040;-73
2021/12/01 08:41:54;;;;;;;7.53;0.80;;;;;;;20.20;36.13;101521.34;4909577;29;20565;-73
2021/12/01 08:44:22;;;;;;;2.55;0.57;;;;;;;20.15;36.31;101509.75;4904925;29;20044;-73
2021/12/01 08:46:50;;;;;;;4.18;1.20;;;;;;;20.36;36.50;101524.75;4898420;29;20044;-73
2021/12/01 08:49:18;;;;;;;5.13;1.30;;;;;;;20.48;36.31;101518.34;4894159;29;20051;-73
2021/12/01 08:51:47;;;;;;;4.40;0.82;;;;;;;20.75;36.62;101519.75;4901027;29;20123;-74
2021/12/01 08:54:15;;;;;;;2.53;0.60;;;;;;;20.96;36.51;101516.75;4911960;29;20100;-74
2021/12/01 08:56:43;;;;;;;6.75;0.90;;;;;;;21.03;36.78;101521.13;4904517;29;20056;-73
2021/12/01 08:59:11;;;;;;;4.40;0.70;;;;;;;21.27;36.68;101514.50;4907995;29;20441;-74
2021/12/01 09:01:39;;;;;;;4.00;0.65;;;;;;;21.36;36.42;101517.94;4909494;29;20054;-74
2021/12/01 09:04:06;;;;;;;3.15;0.50;;;;;;;21.45;36.69;101530.34;4901675;29;20504;-74
2021/12/01 09:06:34;;;;;;;5.10;1.42;;;;;;;21.68;36.76;101521.88;4898264;29;20123;-74
2021/12/01 09:09:03;;;;;;;4.70;1.02;;;;;;;21.83;36.27;101522.47;4903540;29;20417;-73
2021/12/01 09:11:31;;;;;;;5.40;0.77;;;;;;;21.94;35.84;101516.00;4911934;29;20926;-74
2021/12/01 09:13:58;;;;;;;3.22;0.52;;;;;;;21.90;35.55;101508.91;4919925;29;20464;-74
2021/12/01 09:16:27;;;;;;;2.00;0.70;;;;;;;21.80;35.19;101503.72;4897226;29;20120;-74
2021/12/01 09:18:55;;;;;;;4.45;0.82;;;;;;;21.46;34.88;101508.78;4921355;29;20048;-74
2021/12/01 09:21:24;;;;;;;2.30;0.70;;;;;;;21.55;35.72;101496.13;4915849;29;20092;-73
2021/12/01 09:23:51;;;;;;;3.97;0.88;;;;;;;21.87;35.83;101491.94;4919685;29;20466;-73
2021/12/01 09:26:20;;;;;;;4.10;0.63;;;;;;;21.95;34.68;101488.19;4915805;29;20050;-74
2021/12/01 09:28:48;;;;;;;3.03;0.57;;;;;;;21.69;34.66;101483.31;4906260;29;20127;-74
2021/12/01 09:31:16;;;;;;;4.60;0.50;;;;;;;21.75;34.29;101485.91;4898607;29;20116;-74
2021/12/01 09:33:44;;;;;;;3.78;0.63;;;;;;;21.72;34.46;101480.59;4911862;29;20504;-74
2021/12/01 09:36:12;;;;;;;1.70;0.50;;;;;;;21.68;34.99;101473.47;4914308;29;20084;-74
2021/12/01 09:38:40;;;;;;;4.30;1.40;;;;;;;21.88;35.19;101468.63;4898871;29;20051;-74
2021/12/01 09:41:08;;;;;;;2.63;0.60;;;;;;;21.80;34.91;101462.50;4914663;29;20135;-74
2021/12/01 09:43:37;;;;;;;3.45;0.70;;;;;;;21.71;34.97;101460.00;4930260;29;20260;-74
2021/12/01 09:46:09;;;;;;;4.53;0.70;;;;;;;21.77;35.09;101459.88;4908302;29;20059;-74
2021/12/01 09:48:38;;;;;;;3.30;0.50;;;;;;;21.90;35.31;101453.34;4934893;29;20059;-73
2021/12/01 09:51:07;;;;;;;4.18;0.60;;;;;;;22.01;34.75;101456.72;4923854;29;20040;-74
2021/12/01 09:53:36;;;;;;;2.65;0.60;;;;;;;21.95;34.63;101466.69;4919493;29;20134;-74
2021/12/01 09:56:05;;;;;;;4.60;0.80;;;;;;;22.07;35.07;101456.59;4898213;29;20040;-74
2021/12/01 09:58:32;;;;;;;5.95;0.80;;;;;;;21.96;34.77;101455.94;4928758;29;20128;-73
2021/12/01 10:01:07;;;;;;;4.65;0.77;;;;;;;22.02;34.27;101446.88;4914464;29;20453;-74
2021/12/01 10:03:35;;;;;;;3.45;0.52;;;;;;;22.02;34.12;101447.75;4918910;29;20056;-74
2021/12/01 10:06:04;;;;;;;3.70;0.73;;;;;;;21.98;34.30;101445.16;4895779;29;20044;-74
2021/12/01 10:08:35;;;;;;;6.07;1.60;;;;;;;21.94;34.28;101441.59;4923712;29;20052;-74
2021/12/01 10:11:07;;;;;;;3.22;0.70;;;;;;;21.97;34.57;101446.97;4906430;29;20050;-74
2021/12/01 10:13:37;;;;;;;7.78;2.25;;;;;;;22.09;34.53;101446.72;4892610;29;20048;-73
2021/12/01 10:16:10;;;;;;;6.22;1.02;;;;;;;22.25;34.54;101441.91;4917032;29;20055;-75
2021/12/01 10:18:40;;;;;;;5.03;1.50;;;;;;;22.37;34.86;101438.06;4911841;29;20080;-76
2021/12/01 10:21:11;;;;;;;2.20;0.60;;;;;;;22.16;35.04;101442.97;4916560;29;20054;-74
2021/12/01 10:23:44;;;;;;;5.53;1.15;;;;;;;22.27;35.43;101432.84;4912185;29;20052;-74
2021/12/01 10:26:14;;;;;;;3.73;1.27;;;;;;;22.39;35.07;101438.88;4919797;29;20420;-74
2021/12/01 10:28:44;;;;;;;8.38;1.80;;;;;;;22.50;35.06;101432.38;4913855;29;20311;-74
2021/12/01 10:31:15;;;;;;;5.28;0.80;;;;;;;22.40;34.76;101435.28;4898219;29;20052;-74
2021/12/01 10:33:43;;;;;;;4.35;0.98;;;;;;;22.27;35.05;101419.41;4896801;29;20491;-75
2021/12/01 10:36:12;;;;;;;3.88;0.40;;;;;;;22.11;35.07;101435.94;4885192;29;20040;-75
2021/12/01 10:38:45;;;;;;;3.65;0.63;;;;;;;22.09;35.57;101435.94;4923427;29;20396;-74
2021/12/01 10:41:16;;;;;;;3.30;0.63;;;;;;;22.09;35.73;101422.50;4909491;29;20044;-74
2021/12/01 10:43:48;;;;;;;3.80;0.63;;;;;;;22.01;35.55;101429.84;4908517;29;20059;-74
2021/12/01 10:46:20;;;;;;;5.40;0.80;;;;;;;21.74;35.53;101425.88;4903127;29;20094;-74
2021/12/01 10:49:02;;;;;;;3.60;0.60;;;;;;;21.47;35.61;101418.34;4889598;29;20067;-73
2021/12/01 10:51:35;;;;;;;7.38;0.90;;;;;;;21.43;35.55;101412.16;4901257;29;20048;-74
2021/12/01 10:54:04;;;;;;;5.57;0.80;;;;;;;21.31;35.00;101409.69;4890352;29;20557;-73
2021/12/01 10:56:34;;;;;;;5.35;0.60;;;;;;;21.36;35.59;101412.28;4906786;29;20063;-74
2021/12/01 10:59:10;;;;;;;2.88;0.80;;;;;;;21.62;35.12;101414.47;4910592;29;20062;-74
2021/12/01 11:01:40;;;;;;;2.78;0.50;;;;;;;21.55;35.12;101424.47;4895843;29;20043;-74
2021/12/01 11:04:07;;;;;;;7.55;0.70;;;;;;;21.35;35.00;101418.56;4890696;29;20100;-74
2021/12/01 11:06:41;;;;;;;2.30;0.50;;;;;;;21.24;34.81;101409.81;4912187;29;20051;-74
2021/12/01 11:09:09;;;;;;;6.70;0.80;;;;;;;21.12;34.45;101408.22;4921665;29;20127;-74
2021/12/01 11:11:41;;;;;;;3.50;0.70;;;;;;;21.26;34.97;101408.00;4903837;29;20066;-73
2021/12/01 11:14:12;;;;;;;3.80;0.95;;;;;;;21.35;34.82;101413.19;4915755;29;20048;-73
2021/12/01 11:16:43;;;;;;;4.80;0.70;;;;;;;21.28;34.44;101407.03;4883148;29;20127;-74
2021/12/01 11:19:12;;;;;;;3.63;0.47;;;;;;;21.18;34.47;101405.44;4883751;29;20306;-74
2021/12/01 11:21:41;;;;;;;4.13;0.68;;;;;;;21.09;34.17;101410.94;4883539;29;20501;-74
2021/12/01 11:24:11;;;;;;;3.58;0.60;;;;;;;20.90;33.73;101413.06;4912747;29;20516;-73
2021/12/01 11:26:42;;;;;;;5.32;0.43;;;;;;;20.86;33.99;101405.09;4913851;29;20063;-74
2021/12/01 11:29:13;;;;;;;2.42;0.40;;;;;;;20.87;34.20;101399.66;4889357;29;20233;-74
2021/12/01 11:31:46;;;;;;;1.75;0.35;;;;;;;21.05;34.20;101404.75;4902455;29;20053;-74
2021/12/01 11:34:16;;;;;;;3.65;0.50;;;;;;;21.08;33.64;101401.09;4883012;29;20462;-73
2021/12/01 11:36:46;;;;;;;4.90;0.80;;;;;;;21.04;33.57;101402.97;4882578;29;20060;-74